Terminal Aerodrome Forecast
Issued by NWS Detroit/Pontiac, MI

Home | Current Version | Previous Version | Text Only | Print | Product List | Glossary On
Versions: 1 2 3 4 5 6 7 8 9 10 11 12 13 14 15 16 17 18
000
FTUS43 KDTX 270818 AAA
TAFFNT
TAF AMD
KFNT 270818Z 2708/2806 15010KT P6SM SCT070 OVC200 WS010/19045KT
     FM271400 16020G35KT P6SM -SHRA BKN040 BKN100
      TEMPO 2716/2718 3SM TSRA OVC025CB
     FM271800 24020G35KT P6SM BKN040=

USA.gov is the U.S. government's official web portal to all federal, state and local government web resources and services.